sensor_id;sensor_type;location;lat;lon;timestamp;pressure;altitude;pressure_sealevel;temperature;humidity
73598;BME280;61874;48.146;11.594;2022-08-20T00:00:27;95759.59;;;17.62;88.59
73598;BME280;61874;48.146;11.594;2022-08-20T00:03:00;95768.38;;;17.59;88.48
73598;BME280;61874;48.146;11.594;2022-08-20T00:05:32;95773.13;;;17.62;88.54
73598;BME280;61874;48.146;11.594;2022-08-20T00:07:58;95763.59;;;17.65;87.91
73598;BME280;61874;48.146;11.594;2022-08-20T00:10:26;95770.25;;;17.67;88.24
73598;BME280;61874;48.146;11.594;2022-08-20T00:12:51;95767.53;;;17.67;88.54
73598;BME280;61874;48.146;11.594;2022-08-20T00:15:20;95766.75;;;17.67;88.36
73598;BME280;61874;48.146;11.594;2022-08-20T00:17:48;95772.81;;;17.64;88.82
73598;BME280;61874;48.146;11.594;2022-08-20T00:20:18;95769.81;;;17.57;88.18
73598;BME280;61874;48.146;11.594;2022-08-20T00:22:45;95766.47;;;17.60;88.66
73598;BME280;61874;48.146;11.594;2022-08-20T00:25:10;95769.28;;;17.51;88.48
73598;BME280;61874;48.146;11.594;2022-08-20T00:27:36;95773.31;;;17.57;88.35
73598;BME280;61874;48.146;11.594;2022-08-20T00:30:05;95763.53;;;17.53;88.83
73598;BME280;61874;48.146;11.594;2022-08-20T00:32:31;95764.41;;;17.57;88.64
73598;BME280;61874;48.146;11.594;2022-08-20T00:34:56;95773.00;;;17.59;88.32
73598;BME280;61874;48.146;11.594;2022-08-20T00:37:22;95775.03;;;17.62;88.43
73598;BME280;61874;48.146;11.594;2022-08-20T00:39:47;95781.22;;;17.62;88.21
73598;BME280;61874;48.146;11.594;2022-08-20T00:42:13;95776.31;;;17.64;88.85
73598;BME280;61874;48.146;11.594;2022-08-20T00:44:44;95775.38;;;17.60;88.53
73598;BME280;61874;48.146;11.594;2022-08-20T00:47:11;95784.13;;;17.57;88.99
73598;BME280;61874;48.146;11.594;2022-08-20T00:49:36;95778.97;;;17.52;89.11
73598;BME280;61874;48.146;11.594;2022-08-20T00:52:15;95786.03;;;17.45;88.98
73598;BME280;61874;48.146;11.594;2022-08-20T00:54:48;95778.94;;;17.40;89.21
73598;BME280;61874;48.146;11.594;2022-08-20T00:57:22;95782.53;;;17.44;90.00
73598;BME280;61874;48.146;11.594;2022-08-20T00:59:49;95777.56;;;17.46;90.07
73598;BME280;61874;48.146;11.594;2022-08-20T01:02:16;95777.72;;;17.50;89.76
73598;BME280;61874;48.146;11.594;2022-08-20T01:04:43;95778.69;;;17.45;89.35
73598;BME280;61874;48.146;11.594;2022-08-20T01:07:19;95793.00;;;17.46;89.78
73598;BME280;61874;48.146;11.594;2022-08-20T01:09:45;95783.66;;;17.43;90.03
73598;BME280;61874;48.146;11.594;2022-08-20T01:12:12;95788.81;;;17.36;90.20
73598;BME280;61874;48.146;11.594;2022-08-20T01:14:40;95786.69;;;17.42;90.96
73598;BME280;61874;48.146;11.594;2022-08-20T01:17:10;95786.56;;;17.38;90.53
73598;BME280;61874;48.146;11.594;2022-08-20T01:20:28;95781.69;;;17.31;91.00
73598;BME280;61874;48.146;11.594;2022-08-20T01:22:37;95790.13;;;17.30;92.00
73598;BME280;61874;48.146;11.594;2022-08-20T01:28:02;95787.75;;;17.28;91.75
73598;BME280;61874;48.146;11.594;2022-08-20T01:30:28;95797.53;;;17.21;91.30
73598;BME280;61874;48.146;11.594;2022-08-20T01:32:55;95793.72;;;17.22;91.69
73598;BME280;61874;48.146;11.594;2022-08-20T01:35:23;95796.19;;;17.27;91.99
73598;BME280;61874;48.146;11.594;2022-08-20T01:37:48;95791.94;;;17.26;91.47
73598;BME280;61874;48.146;11.594;2022-08-20T01:40:16;95783.56;;;17.19;91.67
73598;BME280;61874;48.146;11.594;2022-08-20T01:42:47;95790.69;;;17.23;92.24
73598;BME280;61874;48.146;11.594;2022-08-20T01:45:14;95799.44;;;17.20;91.82
73598;BME280;61874;48.146;11.594;2022-08-20T01:47:40;95791.34;;;17.20;92.16
73598;BME280;61874;48.146;11.594;2022-08-20T01:50:22;95792.00;;;17.17;92.59
73598;BME280;61874;48.146;11.594;2022-08-20T01:53:03;95794.38;;;17.19;92.60
73598;BME280;61874;48.146;11.594;2022-08-20T01:55:31;95800.75;;;17.14;92.53
73598;BME280;61874;48.146;11.594;2022-08-20T01:57:57;95805.06;;;17.15;93.09
73598;BME280;61874;48.146;11.594;2022-08-20T02:00:24;95796.94;;;17.15;92.81
73598;BME280;61874;48.146;11.594;2022-08-20T02:02:49;95798.34;;;17.21;93.18
73598;BME280;61874;48.146;11.594;2022-08-20T02:05:16;95788.88;;;17.27;93.24
73598;BME280;61874;48.146;11.594;2022-08-20T02:07:42;95798.06;;;17.14;93.05
73598;BME280;61874;48.146;11.594;2022-08-20T02:10:10;95800.91;;;17.18;93.25
73598;BME280;61874;48.146;11.594;2022-08-20T02:12:36;95800.09;;;17.17;93.06
73598;BME280;61874;48.146;11.594;2022-08-20T02:15:05;95800.56;;;17.19;93.19
73598;BME280;61874;48.146;11.594;2022-08-20T02:17:32;95811.66;;;17.26;92.91
73598;BME280;61874;48.146;11.594;2022-08-20T02:20:05;95805.31;;;17.22;93.31
73598;BME280;61874;48.146;11.594;2022-08-20T02:22:47;95809.81;;;17.18;93.56
73598;BME280;61874;48.146;11.594;2022-08-20T02:25:14;95811.38;;;17.19;93.30
73598;BME280;61874;48.146;11.594;2022-08-20T02:27:43;95815.28;;;17.10;93.77
73598;BME280;61874;48.146;11.594;2022-08-20T02:30:14;95820.22;;;17.08;93.52
73598;BME280;61874;48.146;11.594;2022-08-20T02:32:41;95819.28;;;17.04;94.02
73598;BME280;61874;48.146;11.594;2022-08-20T02:35:08;95808.63;;;17.07;94.12
73598;BME280;61874;48.146;11.594;2022-08-20T02:37:35;95814.81;;;17.08;94.30
73598;BME280;61874;48.146;11.594;2022-08-20T02:40:04;95810.06;;;17.05;93.49
73598;BME280;61874;48.146;11.594;2022-08-20T02:42:29;95809.41;;;17.08;93.99
73598;BME280;61874;48.146;11.594;2022-08-20T02:44:55;95810.22;;;17.08;93.89
73598;BME280;61874;48.146;11.594;2022-08-20T02:47:22;95814.97;;;17.11;93.88
73598;BME280;61874;48.146;11.594;2022-08-20T02:49:48;95811.47;;;17.11;93.42
73598;BME280;61874;48.146;11.594;2022-08-20T02:52:13;95818.78;;;17.10;93.58
73598;BME280;61874;48.146;11.594;2022-08-20T02:54:38;95815.75;;;17.12;93.98
73598;BME280;61874;48.146;11.594;2022-08-20T02:57:04;95812.59;;;17.10;93.63
73598;BME280;61874;48.146;11.594;2022-08-20T02:59:29;95823.84;;;17.12;93.57
73598;BME280;61874;48.146;11.594;2022-08-20T03:01:55;95824.03;;;17.07;93.44
73598;BME280;61874;48.146;11.594;2022-08-20T03:04:20;95813.56;;;17.05;94.05
73598;BME280;61874;48.146;11.594;2022-08-20T03:06:46;95814.16;;;17.11;94.06
73598;BME280;61874;48.146;11.594;2022-08-20T03:09:11;95821.72;;;17.17;93.84
73598;BME280;61874;48.146;11.594;2022-08-20T03:11:37;95816.53;;;17.12;93.68
73598;BME280;61874;48.146;11.594;2022-08-20T03:14:05;95823.16;;;17.15;94.04
73598;BME280;61874;48.146;11.594;2022-08-20T03:16:31;95822.06;;;17.16;93.97
73598;BME280;61874;48.146;11.594;2022-08-20T03:18:56;95827.00;;;17.14;94.18
73598;BME280;61874;48.146;11.594;2022-08-20T03:21:22;95826.66;;;17.15;94.23
73598;BME280;61874;48.146;11.594;2022-08-20T03:23:47;95834.19;;;17.10;94.04
73598;BME280;61874;48.146;11.594;2022-08-20T03:26:13;95827.41;;;17.04;94.22
73598;BME280;61874;48.146;11.594;2022-08-20T03:28:40;95825.56;;;16.95;94.32
73598;BME280;61874;48.146;11.594;2022-08-20T03:31:06;95825.69;;;16.99;94.38
73598;BME280;61874;48.146;11.594;2022-08-20T03:33:32;95825.81;;;17.02;94.30
73598;BME280;61874;48.146;11.594;2022-08-20T03:35:57;95832.81;;;17.04;94.36
73598;BME280;61874;48.146;11.594;2022-08-20T03:38:23;95832.22;;;16.98;94.65
73598;BME280;61874;48.146;11.594;2022-08-20T03:40:49;95830.66;;;16.97;94.43
73598;BME280;61874;48.146;11.594;2022-08-20T03:43:15;95832.41;;;16.93;94.28
73598;BME280;61874;48.146;11.594;2022-08-20T03:45:42;95835.25;;;16.96;94.37
73598;BME280;61874;48.146;11.594;2022-08-20T03:48:11;95848.44;;;16.98;94.87
73598;BME280;61874;48.146;11.594;2022-08-20T03:50:38;95845.06;;;17.01;94.50
73598;BME280;61874;48.146;11.594;2022-08-20T03:53:08;95846.63;;;17.02;93.89
73598;BME280;61874;48.146;11.594;2022-08-20T03:55:35;95852.91;;;16.94;93.69
73598;BME280;61874;48.146;11.594;2022-08-20T03:58:03;95848.63;;;16.93;94.41
73598;BME280;61874;48.146;11.594;2022-08-20T04:00:41;95849.56;;;16.97;94.64
73598;BME280;61874;48.146;11.594;2022-08-20T04:03:08;95850.22;;;16.94;94.69
73598;BME280;61874;48.146;11.594;2022-08-20T04:05:35;95842.88;;;16.94;94.74
73598;BME280;61874;48.146;11.594;2022-08-20T04:08:05;95846.72;;;16.93;94.49
73598;BME280;61874;48.146;11.594;2022-08-20T04:10:32;95852.13;;;16.93;94.70
73598;BME280;61874;48.146;11.594;2022-08-20T04:12:59;95853.09;;;16.89;94.95
73598;BME280;61874;48.146;11.594;2022-08-20T04:15:25;95848.63;;;16.93;94.96
73598;BME280;61874;48.146;11.594;2022-08-20T04:17:51;95859.28;;;16.89;94.91
73598;BME280;61874;48.146;11.594;2022-08-20T04:20:19;95858.97;;;16.91;94.91
73598;BME280;61874;48.146;11.594;2022-08-20T04:22:47;95856.53;;;16.98;94.87
73598;BME280;61874;48.146;11.594;2022-08-20T04:25:13;95867.84;;;16.91;94.28
73598;BME280;61874;48.146;11.594;2022-08-20T04:27:39;95869.13;;;16.94;94.58
73598;BME280;61874;48.146;11.594;2022-08-20T04:30:07;95866.41;;;16.94;94.70
73598;BME280;61874;48.146;11.594;2022-08-20T04:32:35;95872.59;;;16.94;94.42
73598;BME280;61874;48.146;11.594;2022-08-20T04:35:05;95872.13;;;16.92;95.04
73598;BME280;61874;48.146;11.594;2022-08-20T04:37:32;95867.38;;;16.89;94.72
73598;BME280;61874;48.146;11.594;2022-08-20T04:40:03;95885.03;;;16.87;95.00
73598;BME280;61874;48.146;11.594;2022-08-20T04:42:47;95878.66;;;16.91;95.27
73598;BME280;61874;48.146;11.594;2022-08-20T04:45:13;95884.53;;;16.93;94.38
73598;BME280;61874;48.146;11.594;2022-08-20T04:47:38;95879.44;;;16.92;94.27
73598;BME280;61874;48.146;11.594;2022-08-20T04:50:07;95869.91;;;16.94;94.77
73598;BME280;61874;48.146;11.594;2022-08-20T04:52:33;95872.84;;;17.01;94.53
73598;BME280;61874;48.146;11.594;2022-08-20T04:54:58;95881.56;;;17.07;94.32
73598;BME280;61874;48.146;11.594;2022-08-20T04:57:24;95874.41;;;17.11;93.97
73598;BME280;61874;48.146;11.594;2022-08-20T04:59:51;95869.97;;;17.07;94.02
73598;BME280;61874;48.146;11.594;2022-08-20T05:02:18;95876.81;;;17.04;93.98
73598;BME280;61874;48.146;11.594;2022-08-20T05:04:43;95869.25;;;16.97;94.24
73598;BME280;61874;48.146;11.594;2022-08-20T05:07:14;95876.69;;;17.00;94.34
73598;BME280;61874;48.146;11.594;2022-08-20T05:09:41;95876.88;;;16.95;93.68
73598;BME280;61874;48.146;11.594;2022-08-20T05:12:07;95884.31;;;16.98;94.39
73598;BME280;61874;48.146;11.594;2022-08-20T05:14:33;95882.56;;;17.02;94.42
73598;BME280;61874;48.146;11.594;2022-08-20T05:17:04;95888.41;;;17.05;94.25
73598;BME280;61874;48.146;11.594;2022-08-20T05:19:33;95888.88;;;17.07;94.55
73598;BME280;61874;48.146;11.594;2022-08-20T05:21:59;95900.16;;;17.09;94.21
73598;BME280;61874;48.146;11.594;2022-08-20T05:24:25;95901.59;;;17.06;93.98
73598;BME280;61874;48.146;11.594;2022-08-20T05:26:50;95905.09;;;17.07;94.36
73598;BME280;61874;48.146;11.594;2022-08-20T05:29:16;95911.94;;;17.04;93.93
73598;BME280;61874;48.146;11.594;2022-08-20T05:31:41;95908.44;;;17.04;94.40
73598;BME280;61874;48.146;11.594;2022-08-20T05:34:10;95911.47;;;17.02;94.47
73598;BME280;61874;48.146;11.594;2022-08-20T05:36:44;95908.84;;;16.93;94.82
73598;BME280;61874;48.146;11.594;2022-08-20T05:39:11;95913.59;;;16.96;94.92
73598;BME280;61874;48.146;11.594;2022-08-20T05:41:38;95922.28;;;17.02;94.78
73598;BME280;61874;48.146;11.594;2022-08-20T05:44:05;95915.59;;;17.08;94.77
73598;BME280;61874;48.146;11.594;2022-08-20T05:46:35;95916.84;;;17.11;94.51
73598;BME280;61874;48.146;11.594;2022-08-20T05:49:09;95924.47;;;17.09;94.55
73598;BME280;61874;48.146;11.594;2022-08-20T05:51:35;95919.06;;;17.09;94.85
73598;BME280;61874;48.146;11.594;2022-08-20T05:54:02;95922.56;;;17.09;94.58
73598;BME280;61874;48.146;11.594;2022-08-20T05:56:28;95921.25;;;17.15;94.14
73598;BME280;61874;48.146;11.594;2022-08-20T05:58:54;95921.25;;;17.15;94.50
73598;BME280;61874;48.146;11.594;2022-08-20T06:01:20;95928.69;;;17.18;94.49
73598;BME280;61874;48.146;11.594;2022-08-20T06:03:45;95926.00;;;17.18;93.71
73598;BME280;61874;48.146;11.594;2022-08-20T06:06:29;95921.56;;;17.14;93.06
73598;BME280;61874;48.146;11.594;2022-08-20T06:08:55;95929.03;;;17.17;93.60
73598;BME280;61874;48.146;11.594;2022-08-20T06:11:21;95922.97;;;17.20;93.58
73598;BME280;61874;48.146;11.594;2022-08-20T06:13:47;95930.94;;;17.16;94.19
73598;BME280;61874;48.146;11.594;2022-08-20T06:16:12;95933.97;;;17.15;94.52
73598;BME280;61874;48.146;11.594;2022-08-20T06:18:38;95931.69;;;17.25;93.92
73598;BME280;61874;48.146;11.594;2022-08-20T06:21:03;95932.47;;;17.26;93.86
73598;BME280;61874;48.146;11.594;2022-08-20T06:23:29;95944.81;;;17.35;94.26
73598;BME280;61874;48.146;11.594;2022-08-20T06:25:54;95944.16;;;17.39;93.90
73598;BME280;61874;48.146;11.594;2022-08-20T06:28:20;95941.38;;;17.47;93.66
73598;BME280;61874;48.146;11.594;2022-08-20T06:30:45;95950.41;;;17.51;93.26
73598;BME280;61874;48.146;11.594;2022-08-20T06:33:11;95938.34;;;17.49;93.27
73598;BME280;61874;48.146;11.594;2022-08-20T06:35:36;95942.81;;;17.45;93.69
73598;BME280;61874;48.146;11.594;2022-08-20T06:38:03;95946.63;;;17.44;93.08
73598;BME280;61874;48.146;11.594;2022-08-20T06:40:30;95938.41;;;17.40;91.95
73598;BME280;61874;48.146;11.594;2022-08-20T06:42:56;95941.78;;;17.37;93.38
73598;BME280;61874;48.146;11.594;2022-08-20T06:45:25;95949.66;;;17.42;93.11
73598;BME280;61874;48.146;11.594;2022-08-20T06:47:53;95942.34;;;17.43;92.70
73598;BME280;61874;48.146;11.594;2022-08-20T06:50:26;95940.13;;;17.45;93.46
73598;BME280;61874;48.146;11.594;2022-08-20T06:52:52;95949.63;;;17.51;93.26
73598;BME280;61874;48.146;11.594;2022-08-20T06:55:18;95947.06;;;17.54;92.77
73598;BME280;61874;48.146;11.594;2022-08-20T06:57:44;95958.31;;;17.56;92.56
73598;BME280;61874;48.146;11.594;2022-08-20T07:00:17;95960.81;;;17.61;92.98
73598;BME280;61874;48.146;11.594;2022-08-20T07:02:43;95961.94;;;17.60;93.03
73598;BME280;61874;48.146;11.594;2022-08-20T07:05:11;95968.16;;;17.61;92.94
73598;BME280;61874;48.146;11.594;2022-08-20T07:07:36;95962.75;;;17.61;93.52
73598;BME280;61874;48.146;11.594;2022-08-20T07:10:05;95969.13;;;17.65;93.02
73598;BME280;61874;48.146;11.594;2022-08-20T07:12:31;95969.34;;;17.72;92.12
73598;BME280;61874;48.146;11.594;2022-08-20T07:14:58;95968.47;;;17.68;92.39
73598;BME280;61874;48.146;11.594;2022-08-20T07:17:23;95975.63;;;17.64;93.04
73598;BME280;61874;48.146;11.594;2022-08-20T07:19:49;95969.13;;;17.65;92.94
73598;BME280;61874;48.146;11.594;2022-08-20T07:22:14;95972.16;;;17.63;93.45
73598;BME280;61874;48.146;11.594;2022-08-20T07:24:40;95974.22;;;17.58;93.23
73598;BME280;61874;48.146;11.594;2022-08-20T07:27:05;95970.25;;;17.55;93.55
73598;BME280;61874;48.146;11.594;2022-08-20T07:29:31;95978.81;;;17.57;93.73
73598;BME280;61874;48.146;11.594;2022-08-20T07:32:16;95972.75;;;17.60;92.50
73598;BME280;61874;48.146;11.594;2022-08-20T07:35:06;95979.50;;;17.54;91.89
73598;BME280;61874;48.146;11.594;2022-08-20T07:37:43;95980.56;;;17.62;92.85
73598;BME280;61874;48.146;11.594;2022-08-20T07:40:15;95975.94;;;17.62;93.58
73598;BME280;61874;48.146;11.594;2022-08-20T07:42:41;95981.19;;;17.59;93.89
73598;BME280;61874;48.146;11.594;2022-08-20T07:45:12;95983.13;;;17.58;93.25
73598;BME280;61874;48.146;11.594;2022-08-20T07:47:41;95984.22;;;17.57;92.66
73598;BME280;61874;48.146;11.594;2022-08-20T07:50:12;95988.19;;;17.60;93.65
73598;BME280;61874;48.146;11.594;2022-08-20T07:52:38;95986.59;;;17.67;92.89
73598;BME280;61874;48.146;11.594;2022-08-20T07:55:05;95999.00;;;17.68;92.46
73598;BME280;61874;48.146;11.594;2022-08-20T07:57:31;95985.59;;;17.72;93.38
73598;BME280;61874;48.146;11.594;2022-08-20T07:59:57;95994.81;;;17.71;92.85
73598;BME280;61874;48.146;11.594;2022-08-20T08:02:27;95990.19;;;17.71;93.12
73598;BME280;61874;48.146;11.594;2022-08-20T08:04:53;95989.53;;;17.75;92.13
73598;BME280;61874;48.146;11.594;2022-08-20T08:07:20;95996.06;;;17.74;91.63
73598;BME280;61874;48.146;11.594;2022-08-20T08:09:46;95995.94;;;17.70;91.87
73598;BME280;61874;48.146;11.594;2022-08-20T08:12:13;95992.25;;;17.75;90.96
73598;BME280;61874;48.146;11.594;2022-08-20T08:14:40;95993.19;;;17.79;92.26
73598;BME280;61874;48.146;11.594;2022-08-20T08:17:06;95987.03;;;17.90;90.83
73598;BME280;61874;48.146;11.594;2022-08-20T08:19:36;95990.34;;;17.96;91.45
73598;BME280;61874;48.146;11.594;2022-08-20T08:22:04;95993.16;;;17.99;90.89
73598;BME280;61874;48.146;11.594;2022-08-20T08:24:31;95991.72;;;18.02;90.07
73598;BME280;61874;48.146;11.594;2022-08-20T08:26:56;95999.97;;;18.05;89.96
73598;BME280;61874;48.146;11.594;2022-08-20T08:29:21;96001.06;;;18.04;90.26
73598;BME280;61874;48.146;11.594;2022-08-20T08:31:47;96002.34;;;18.07;91.43
73598;BME280;61874;48.146;11.594;2022-08-20T08:34:13;96003.97;;;17.99;90.27
73598;BME280;61874;48.146;11.594;2022-08-20T08:36:38;96006.22;;;17.97;91.34
73598;BME280;61874;48.146;11.594;2022-08-20T08:39:04;96003.06;;;17.95;90.93
73598;BME280;61874;48.146;11.594;2022-08-20T08:41:32;96012.19;;;17.91;90.55
73598;BME280;61874;48.146;11.594;2022-08-20T08:46:31;96012.66;;;17.93;91.40
73598;BME280;61874;48.146;11.594;2022-08-20T08:48:59;96016.88;;;17.82;89.02
73598;BME280;61874;48.146;11.594;2022-08-20T08:51:43;96019.13;;;17.80;91.86
73598;BME280;61874;48.146;11.594;2022-08-20T08:54:14;96022.34;;;17.73;92.31
73598;BME280;61874;48.146;11.594;2022-08-20T08:56:42;96017.53;;;17.79;92.09
73598;BME280;61874;48.146;11.594;2022-08-20T08:59:10;96022.47;;;17.77;92.24
73598;BME280;61874;48.146;11.594;2022-08-20T09:01:46;96022.00;;;17.75;91.13
73598;BME280;61874;48.146;11.594;2022-08-20T09:04:14;96028.34;;;17.79;91.95
73598;BME280;61874;48.146;11.594;2022-08-20T09:06:40;96028.03;;;17.80;91.71
73598;BME280;61874;48.146;11.594;2022-08-20T09:09:14;96033.53;;;17.84;92.02
73598;BME280;61874;48.146;11.594;2022-08-20T09:11:50;96028.75;;;17.89;92.70
73598;BME280;61874;48.146;11.594;2022-08-20T09:14:17;96025.25;;;17.89;92.62
73598;BME280;61874;48.146;11.594;2022-08-20T09:16:43;96028.94;;;17.84;93.03
73598;BME280;61874;48.146;11.594;2022-08-20T09:19:08;96029.72;;;17.85;92.09
73598;BME280;61874;48.146;11.594;2022-08-20T09:21:34;96030.97;;;17.87;92.97
73598;BME280;61874;48.146;11.594;2022-08-20T09:23:59;96028.59;;;17.86;93.46
73598;BME280;61874;48.146;11.594;2022-08-20T09:26:25;96033.91;;;17.82;92.89
73598;BME280;61874;48.146;11.594;2022-08-20T09:28:50;96032.31;;;17.81;93.06
73598;BME280;61874;48.146;11.594;2022-08-20T09:31:15;96031.78;;;17.88;93.38
73598;BME280;61874;48.146;11.594;2022-08-20T09:33:41;96039.97;;;17.79;93.51
73598;BME280;61874;48.146;11.594;2022-08-20T09:36:06;96030.72;;;17.80;93.65
73598;BME280;61874;48.146;11.594;2022-08-20T09:38:32;96030.03;;;17.83;94.11
73598;BME280;61874;48.146;11.594;2022-08-20T09:40:57;96034.63;;;17.91;93.67
73598;BME280;61874;48.146;11.594;2022-08-20T09:43:23;96026.63;;;17.95;93.96
73598;BME280;61874;48.146;11.594;2022-08-20T09:45:48;96029.44;;;17.98;93.12
73598;BME280;61874;48.146;11.594;2022-08-20T09:48:13;96027.75;;;17.94;93.73
73598;BME280;61874;48.146;11.594;2022-08-20T09:50:43;96031.59;;;17.93;94.07
73598;BME280;61874;48.146;11.594;2022-08-20T09:53:10;96031.59;;;17.93;93.97
73598;BME280;61874;48.146;11.594;2022-08-20T09:55:37;96032.22;;;17.90;94.05
73598;BME280;61874;48.146;11.594;2022-08-20T09:58:08;96024.72;;;17.95;94.42
73598;BME280;61874;48.146;11.594;2022-08-20T10:00:35;96021.66;;;17.97;94.44
73598;BME280;61874;48.146;11.594;2022-08-20T10:03:00;96026.88;;;18.02;94.36
73598;BME280;61874;48.146;11.594;2022-08-20T10:05:27;96024.78;;;18.08;93.69
73598;BME280;61874;48.146;11.594;2022-08-20T10:07:53;96019.88;;;18.01;93.21
73598;BME280;61874;48.146;11.594;2022-08-20T10:10:18;96019.88;;;18.01;93.83
73598;BME280;61874;48.146;11.594;2022-08-20T10:12:44;96020.81;;;18.05;93.37
73598;BME280;61874;48.146;11.594;2022-08-20T10:15:11;96021.59;;;18.05;92.82
73598;BME280;61874;48.146;11.594;2022-08-20T10:17:41;96021.59;;;18.05;93.39
73598;BME280;61874;48.146;11.594;2022-08-20T10:20:08;96027.59;;;18.11;92.53
73598;BME280;61874;48.146;11.594;2022-08-20T10:22:34;96021.88;;;18.25;92.55
73598;BME280;61874;48.146;11.594;2022-08-20T10:25:00;96020.38;;;18.36;92.44
73598;BME280;61874;48.146;11.594;2022-08-20T10:27:26;96018.69;;;18.43;91.99
73598;BME280;61874;48.146;11.594;2022-08-20T10:29:51;96023.13;;;18.48;92.27
73598;BME280;61874;48.146;11.594;2022-08-20T10:32:16;96018.63;;;18.52;91.69
73598;BME280;61874;48.146;11.594;2022-08-20T10:34:43;96015.56;;;18.54;91.05
73598;BME280;61874;48.146;11.594;2022-08-20T10:37:17;96018.72;;;18.56;90.49
73598;BME280;61874;48.146;11.594;2022-08-20T10:39:43;96029.56;;;18.56;90.48
73598;BME280;61874;48.146;11.594;2022-08-20T10:42:08;96022.56;;;18.55;90.70
73598;BME280;61874;48.146;11.594;2022-08-20T10:44:35;96016.81;;;18.56;91.11
73598;BME280;61874;48.146;11.594;2022-08-20T10:47:19;96027.94;;;18.63;91.06
73598;BME280;61874;48.146;11.594;2022-08-20T10:49:46;96018.78;;;18.68;90.29
73598;BME280;61874;48.146;11.594;2022-08-20T10:52:11;96015.63;;;18.66;90.06
73598;BME280;61874;48.146;11.594;2022-08-20T10:54:37;96014.84;;;18.65;90.18
73598;BME280;61874;48.146;11.594;2022-08-20T10:57:17;96019.47;;;18.65;90.47
73598;BME280;61874;48.146;11.594;2022-08-20T10:59:44;96019.91;;;18.67;90.57
73598;BME280;61874;48.146;11.594;2022-08-20T11:02:09;96023.41;;;18.67;90.78
73598;BME280;61874;48.146;11.594;2022-08-20T11:04:36;96020.03;;;18.70;90.88
73598;BME280;61874;48.146;11.594;2022-08-20T11:07:28;96018.78;;;18.68;90.76
73598;BME280;61874;48.146;11.594;2022-08-20T11:09:56;96016.75;;;18.65;90.20
73598;BME280;61874;48.146;11.594;2022-08-20T11:12:22;96016.00;;;18.56;91.33
73598;BME280;61874;48.146;11.594;2022-08-20T11:14:49;96003.16;;;18.53;91.19
73598;BME280;61874;48.146;11.594;2022-08-20T11:17:23;96003.81;;;18.50;89.98
73598;BME280;61874;48.146;11.594;2022-08-20T11:19:50;96011.63;;;18.51;91.66
73598;BME280;61874;48.146;11.594;2022-08-20T11:22:16;95998.50;;;18.53;93.00
73598;BME280;61874;48.146;11.594;2022-08-20T11:24:41;95996.41;;;18.59;92.88
73598;BME280;61874;48.146;11.594;2022-08-20T11:27:07;95993.59;;;18.67;91.99
73598;BME280;61874;48.146;11.594;2022-08-20T11:29:34;95988.78;;;18.73;91.07
73598;BME280;61874;48.146;11.594;2022-08-20T11:31:59;95991.59;;;18.76;92.05
73598;BME280;61874;48.146;11.594;2022-08-20T11:34:25;95995.56;;;18.91;91.30
73598;BME280;61874;48.146;11.594;2022-08-20T11:36:50;95989.47;;;18.94;88.85
73598;BME280;61874;48.146;11.594;2022-08-20T11:39:16;95986.41;;;18.96;88.92
73598;BME280;61874;48.146;11.594;2022-08-20T11:41:41;95984.84;;;19.07;88.50
73598;BME280;61874;48.146;11.594;2022-08-20T11:44:07;95989.81;;;19.17;88.84
73598;BME280;61874;48.146;11.594;2022-08-20T11:46:32;95990.47;;;19.26;89.30
73598;BME280;61874;48.146;11.594;2022-08-20T11:48:58;95985.81;;;19.39;88.89
73598;BME280;61874;48.146;11.594;2022-08-20T11:51:24;95988.78;;;19.34;87.58
73598;BME280;61874;48.146;11.594;2022-08-20T11:53:49;95987.88;;;19.30;89.11
73598;BME280;61874;48.146;11.594;2022-08-20T11:56:15;95994.44;;;19.29;89.09
73598;BME280;61874;48.146;11.594;2022-08-20T11:58:41;95997.81;;;19.26;88.05
73598;BME280;61874;48.146;11.594;2022-08-20T12:01:07;95992.41;;;19.26;89.24
73598;BME280;61874;48.146;11.594;2022-08-20T12:03:33;95995.56;;;19.28;87.62
73598;BME280;61874;48.146;11.594;2022-08-20T12:05:58;95993.63;;;19.28;88.42
73598;BME280;61874;48.146;11.594;2022-08-20T12:08:23;95996.47;;;19.32;88.05
73598;BME280;61874;48.146;11.594;2022-08-20T12:10:49;95988.44;;;19.35;87.97
73598;BME280;61874;48.146;11.594;2022-08-20T12:13:14;95996.00;;;19.42;87.09
73598;BME280;61874;48.146;11.594;2022-08-20T12:15:40;95998.63;;;19.51;86.54
73598;BME280;61874;48.146;11.594;2022-08-20T12:18:06;95994.34;;;19.50;85.06
73598;BME280;61874;48.146;11.594;2022-08-20T12:20:32;95996.78;;;19.55;85.85
73598;BME280;61874;48.146;11.594;2022-08-20T12:22:57;95999.16;;;19.56;87.19
73598;BME280;61874;48.146;11.594;2022-08-20T12:25:23;95996.78;;;19.55;88.20
73598;BME280;61874;48.146;11.594;2022-08-20T12:27:48;95999.84;;;19.53;86.63
73598;BME280;61874;48.146;11.594;2022-08-20T12:30:17;95997.84;;;19.50;87.41
73598;BME280;61874;48.146;11.594;2022-08-20T12:32:44;95994.75;;;19.39;88.59
73598;BME280;61874;48.146;11.594;2022-08-20T12:35:10;95989.00;;;19.41;86.85
73598;BME280;61874;48.146;11.594;2022-08-20T12:37:36;95997.84;;;19.50;84.96
73598;BME280;61874;48.146;11.594;2022-08-20T12:40:06;95984.81;;;19.56;86.45
73598;BME280;61874;48.146;11.594;2022-08-20T12:42:32;95986.59;;;19.76;86.17
73598;BME280;61874;48.146;11.594;2022-08-20T12:44:58;95983.16;;;19.91;85.74
73598;BME280;61874;48.146;11.594;2022-08-20T12:47:33;95983.22;;;19.95;82.07
73598;BME280;61874;48.146;11.594;2022-08-20T12:50:02;95981.53;;;20.02;83.43
73598;BME280;61874;48.146;11.594;2022-08-20T12:52:29;95976.59;;;20.20;81.98
73598;BME280;61874;48.146;11.594;2022-08-20T12:54:55;95973.09;;;20.20;80.23
73598;BME280;61874;48.146;11.594;2022-08-20T12:59:46;95971.31;;;20.39;81.27